Time;durP1;ratioP1;P1;durP2;ratioP2;P2;SDS_P1;SDS_P2;PMS_P1;PMS_P2;Temp;Humidity;BMP_temperature;BMP_pressure;BME280_temperature;BME280_humidity;BME280_pressure;Samples;Min_cycle;Max_cycle;Signal;HPM_P1;HPM_P2
2022/09/10 00:00:57;;;;;;;;;;;;;;;20.16;76.06;100891.88;7286023;19;152687;-59
2022/09/10 00:03:24;;;;;;;;;;;;;;;20.14;75.84;100899.75;7288309;19;154237;-59
2022/09/10 00:05:51;;;;;;;;;;;;;;;20.17;76.47;100898.31;7284734;19;154296;-60
2022/09/10 00:08:20;;;;;;;;;;;;;;;20.13;76.10;100898.09;7280353;19;153109;-60
2022/09/10 00:10:49;;;;;;;;;;;;;;;20.16;76.29;100896.66;7285903;19;152559;-62
2022/09/10 00:13:17;;;;;;;;;;;;;;;20.14;75.72;100898.91;7278415;19;154087;-60
2022/09/10 00:15:46;;;;;;;;;;;;;;;20.16;76.34;100902.25;7279517;19;154123;-61
2022/09/10 00:18:14;;;;;;;;;;;;;;;20.14;75.40;100904.53;7284627;19;151638;-61
2022/09/10 00:20:52;;;;;;;;;;;;;;;20.14;75.32;100907.34;7284881;19;153519;-61
2022/09/10 00:23:22;;;;;;;;;;;;;;;20.16;76.69;100910.69;7289337;19;152594;-61
2022/09/10 00:25:53;;;;;;;;;;;;;;;20.13;75.73;100922.50;7285286;19;153841;-60
2022/09/10 00:28:22;;;;;;;;;;;;;;;20.15;76.24;100923.03;7279751;19;153135;-60
2022/09/10 00:30:50;;;;;;;;;;;;;;;20.17;76.57;100926.38;7284491;19;151846;-61
2022/09/10 00:33:18;;;;;;;;;;;;;;;20.16;76.40;100924.72;7281455;19;153381;-60
2022/09/10 00:35:45;;;;;;;;;;;;;;;20.17;76.20;100932.00;7281535;19;154011;-61
2022/09/10 00:38:12;;;;;;;;;;;;;;;20.14;75.43;100936.22;7284194;19;153029;-60
2022/09/10 00:40:39;;;;;;;;;;;;;;;20.15;75.24;100940.69;7283456;19;152698;-60
2022/09/10 00:43:14;;;;;;;;;;;;;;;20.14;75.21;100941.84;7280110;19;153322;-60
2022/09/10 00:45:43;;;;;;;;;;;;;;;20.15;75.35;100931.44;7290736;19;154112;-60
2022/09/10 00:48:15;;;;;;;;;;;;;;;20.14;75.70;100930.63;7282627;19;153445;-61
2022/09/10 00:50:44;;;;;;;;;;;;;;;20.13;75.23;100936.53;7280286;19;152174;-60
2022/09/10 00:53:14;;;;;;;;;;;;;;;20.14;75.43;100935.38;7280739;19;153524;-60
2022/09/10 00:55:42;;;;;;;;;;;;;;;20.17;76.57;100934.78;7282117;19;153398;-60
2022/09/10 00:58:11;;;;;;;;;;;;;;;20.15;75.35;100929.47;7280575;19;153485;-61
2022/09/10 01:00:40;;;;;;;;;;;;;;;20.15;75.59;100946.31;7282085;19;153104;-61
2022/09/10 01:03:10;;;;;;;;;;;;;;;20.15;76.81;100937.91;7279297;19;153497;-60
2022/09/10 01:05:40;;;;;;;;;;;;;;;20.19;76.46;100935.31;7283351;19;152855;-60
2022/09/10 01:08:13;;;;;;;;;;;;;;;20.17;76.77;100932.00;7289789;19;153434;-60
2022/09/10 01:10:55;;;;;;;;;;;;;;;20.19;76.16;100938.94;7281480;19;152834;-60
2022/09/10 01:13:43;;;;;;;;;;;;;;;20.18;75.80;100934.47;7278461;19;153928;-59
2022/09/10 01:16:17;;;;;;;;;;;;;;;20.18;76.45;100942.88;7277521;19;157791;-60
2022/09/10 01:19:01;;;;;;;;;;;;;;;20.24;77.76;100932.41;7280598;19;153257;-60
2022/09/10 01:21:31;;;;;;;;;;;;;;;20.28;77.91;100937.09;7279363;19;153201;-61
2022/09/10 01:24:11;;;;;;;;;;;;;;;20.24;77.42;100935.22;7280840;19;153828;-61
2022/09/10 01:26:50;;;;;;;;;;;;;;;20.22;76.71;100934.69;7281584;19;151898;-60
2022/09/10 01:29:24;;;;;;;;;;;;;;;20.23;77.27;100944.78;7279116;19;154243;-60
2022/09/10 01:31:54;;;;;;;;;;;;;;;20.24;77.68;100940.84;7289634;19;152470;-60
2022/09/10 01:34:33;;;;;;;;;;;;;;;20.26;77.71;100942.19;7280561;19;152939;-60
2022/09/10 01:37:06;;;;;;;;;;;;;;;20.27;77.64;100948.63;7280595;19;154378;-61
2022/09/10 01:39:34;;;;;;;;;;;;;;;20.25;76.86;100945.31;7281734;19;151841;-60
2022/09/10 01:42:02;;;;;;;;;;;;;;;20.25;77.03;100946.16;7279165;19;153988;-60
2022/09/10 01:44:49;;;;;;;;;;;;;;;20.27;76.92;100949.47;7280288;19;153940;-60
2022/09/10 01:47:22;;;;;;;;;;;;;;;20.29;76.96;100960.38;7281685;19;152500;-61
2022/09/10 01:49:57;;;;;;;;;;;;;;;20.27;76.96;100954.25;7282147;19;153030;-61
2022/09/10 01:52:42;;;;;;;;;;;;;;;20.28;77.20;100962.34;7280987;19;152860;-60
2022/09/10 01:55:17;;;;;;;;;;;;;;;20.22;76.34;100955.16;7285102;19;152995;-60
2022/09/10 01:57:58;;;;;;;;;;;;;;;20.25;76.84;100962.16;7277674;19;152976;-60
2022/09/10 02:00:25;;;;;;;;;;;;;;;20.24;76.61;100957.66;7280941;19;152616;-60
2022/09/10 02:03:02;;;;;;;;;;;;;;;20.22;76.51;100957.13;7281153;19;153451;-61
2022/09/10 02:05:34;;;;;;;;;;;;;;;20.23;76.32;100958.81;7279734;19;153484;-61
2022/09/10 02:08:04;;;;;;;;;;;;;;;20.20;76.57;100963.06;7288376;19;152115;-60
2022/09/10 02:10:31;;;;;;;;;;;;;;;20.20;76.36;100962.22;7288082;19;152500;-61
2022/09/10 02:12:58;;;;;;;;;;;;;;;20.24;77.18;100974.50;7284278;19;152688;-60
2022/09/10 02:15:33;;;;;;;;;;;;;;;20.23;76.49;100970.84;7283915;19;152187;-60
2022/09/10 02:18:00;;;;;;;;;;;;;;;20.25;76.72;100976.19;7290873;19;152935;-60
2022/09/10 02:20:29;;;;;;;;;;;;;;;20.24;76.44;100977.31;7287246;19;152249;-60
2022/09/10 02:22:57;;;;;;;;;;;;;;;20.26;77.04;100987.06;7286911;19;155107;-60
2022/09/10 02:25:30;;;;;;;;;;;;;;;20.29;77.82;100980.03;7286624;19;154204;-60
2022/09/10 02:27:58;;;;;;;;;;;;;;;20.27;77.55;100976.69;7284697;19;152331;-60
2022/09/10 02:30:25;;;;;;;;;;;;;;;20.30;77.57;100973.31;7287609;19;153602;-60
2022/09/10 02:32:52;;;;;;;;;;;;;;;20.29;76.99;100968.81;7286178;19;153455;-62
2022/09/10 02:35:19;;;;;;;;;;;;;;;20.25;76.39;100967.75;7284474;19;152193;-62
2022/09/10 02:37:57;;;;;;;;;;;;;;;20.21;75.98;100977.94;7293819;19;153058;-62
2022/09/10 02:40:24;;;;;;;;;;;;;;;20.24;76.51;100968.88;7286292;19;154117;-62
2022/09/10 02:42:51;;;;;;;;;;;;;;;20.19;75.49;100974.56;7284734;19;153922;-62
2022/09/10 02:45:18;;;;;;;;;;;;;;;20.19;75.36;100981.03;7284855;19;152880;-62
2022/09/10 02:47:45;;;;;;;;;;;;;;;20.19;75.15;100983.00;7287709;19;152085;-62
2022/09/10 02:50:12;;;;;;;;;;;;;;;20.19;75.86;100983.84;7284747;19;153638;-61
2022/09/10 02:52:39;;;;;;;;;;;;;;;20.18;75.34;100976.56;7284200;19;152985;-62
2022/09/10 02:55:06;;;;;;;;;;;;;;;20.19;75.08;100985.81;7286168;19;152410;-62
2022/09/10 02:57:33;;;;;;;;;;;;;;;20.20;75.59;100988.31;7280989;19;153976;-61
2022/09/10 03:00:01;;;;;;;;;;;;;;;20.21;75.69;100989.16;7292919;19;153507;-61
2022/09/10 03:02:28;;;;;;;;;;;;;;;20.19;74.96;100991.41;7286243;19;153154;-61
2022/09/10 03:04:55;;;;;;;;;;;;;;;20.19;75.18;100997.03;7284205;19;155331;-61
2022/09/10 03:07:22;;;;;;;;;;;;;;;20.20;75.69;101007.94;7286942;19;152669;-62
2022/09/10 03:09:49;;;;;;;;;;;;;;;20.19;75.44;101009.09;7286451;19;152768;-60
2022/09/10 03:12:16;;;;;;;;;;;;;;;20.20;75.73;100998.69;7283054;19;154711;-60
2022/09/10 03:14:43;;;;;;;;;;;;;;;20.20;75.89;101001.50;7285648;19;152306;-60
2022/09/10 03:17:10;;;;;;;;;;;;;;;20.21;75.39;101011.59;7278272;19;152550;-60
2022/09/10 03:19:38;;;;;;;;;;;;;;;20.19;75.69;101020.31;7283615;19;153928;-61
2022/09/10 03:22:05;;;;;;;;;;;;;;;20.25;76.90;101024.72;7291498;19;152094;-61
2022/09/10 03:24:32;;;;;;;;;;;;;;;20.26;76.19;101025.53;7284841;19;153225;-61
2022/09/10 03:27:01;;;;;;;;;;;;;;;20.22;76.16;101030.91;7283837;19;152397;-61
2022/09/10 03:29:29;;;;;;;;;;;;;;;20.21;75.41;101023.66;7284999;19;152991;-61
2022/09/10 03:31:56;;;;;;;;;;;;;;;20.22;75.83;101024.47;7284667;19;154160;-61
2022/09/10 03:34:26;;;;;;;;;;;;;;;20.22;76.09;101028.09;7283762;19;153146;-60
2022/09/10 03:36:53;;;;;;;;;;;;;;;20.22;76.18;101022.50;7286637;19;153466;-60
2022/09/10 03:39:20;;;;;;;;;;;;;;;20.22;75.79;101030.06;7284802;19;152962;-60
2022/09/10 03:41:47;;;;;;;;;;;;;;;20.22;75.76;101032.88;7286637;19;152211;-61
2022/09/10 03:44:14;;;;;;;;;;;;;;;20.27;76.23;101027.19;7287310;19;153133;-61
2022/09/10 03:46:41;;;;;;;;;;;;;;;20.26;75.95;101028.34;7282157;19;152503;-61
2022/09/10 03:49:09;;;;;;;;;;;;;;;20.23;75.32;101021.34;7284087;19;152566;-60
2022/09/10 03:51:36;;;;;;;;;;;;;;;20.30;75.97;101023.81;7285546;19;153411;-60
2022/09/10 03:54:03;;;;;;;;;;;;;;;20.25;75.61;101030.31;7284211;19;152832;-61
2022/09/10 03:56:30;;;;;;;;;;;;;;;20.26;75.86;101020.75;7283977;19;152829;-61
2022/09/10 03:59:00;;;;;;;;;;;;;;;20.20;74.84;101013.56;7279143;19;153216;-61
2022/09/10 04:01:29;;;;;;;;;;;;;;;20.19;75.24;101009.09;7285711;19;151851;-61
2022/09/10 04:03:57;;;;;;;;;;;;;;;20.21;75.78;101020.00;7279485;19;152185;-61
2022/09/10 04:06:24;;;;;;;;;;;;;;;20.21;75.14;101020.84;7289813;19;153306;-61
2022/09/10 04:08:54;;;;;;;;;;;;;;;20.19;75.31;101023.09;7283368;19;153043;-60
2022/09/10 04:11:26;;;;;;;;;;;;;;;20.21;76.04;101031.22;7284654;19;154375;-61
2022/09/10 04:13:53;;;;;;;;;;;;;;;20.19;74.82;101027.88;7279618;19;152922;-60
2022/09/10 04:16:22;;;;;;;;;;;;;;;20.20;75.60;101035.16;7282503;19;153471;-61
2022/09/10 04:18:49;;;;;;;;;;;;;;;20.22;75.99;101041.28;7280348;19;154057;-60
2022/09/10 04:21:16;;;;;;;;;;;;;;;20.21;75.19;101045.25;7285509;19;151711;-60
2022/09/10 04:23:44;;;;;;;;;;;;;;;20.21;75.54;101042.44;7283988;19;152568;-60
2022/09/10 04:26:16;;;;;;;;;;;;;;;20.21;75.58;101045.25;7283697;19;154060;-60
2022/09/10 04:28:43;;;;;;;;;;;;;;;20.19;75.36;101048.34;7285747;19;151960;-60
2022/09/10 04:31:10;;;;;;;;;;;;;;;20.21;75.10;101056.47;7281580;19;153532;-61
2022/09/10 04:33:39;;;;;;;;;;;;;;;20.25;75.45;101058.38;7283604;19;153054;-60
2022/09/10 04:36:06;;;;;;;;;;;;;;;20.21;75.29;101060.13;7282164;19;154053;-61
2022/09/10 04:38:38;;;;;;;;;;;;;;;20.19;74.52;101062.38;7282205;19;153307;-60
2022/09/10 04:41:06;;;;;;;;;;;;;;;20.20;75.29;101060.41;7283078;19;152066;-60
2022/09/10 04:43:33;;;;;;;;;;;;;;;20.20;74.75;101060.41;7280782;19;153462;-61
2022/09/10 04:46:00;;;;;;;;;;;;;;;20.18;74.28;101063.50;7282754;19;154051;-61
2022/09/10 04:48:27;;;;;;;;;;;;;;;20.18;74.55;101062.69;7290675;19;151943;-61
2022/09/10 04:50:54;;;;;;;;;;;;;;;20.16;74.79;101068.63;7281837;19;154426;-61
2022/09/10 04:53:41;;;;;;;;;;;;;;;20.16;74.59;101064.97;7280624;19;152834;-61
2022/09/10 04:56:08;;;;;;;;;;;;;;;20.18;75.21;101062.69;7281364;19;153809;-61
2022/09/10 04:58:35;;;;;;;;;;;;;;;20.18;75.21;101063.50;7278403;19;153695;-61
2022/09/10 05:01:04;;;;;;;;;;;;;;;20.17;74.92;101070.25;7283379;19;152602;-61
2022/09/10 05:03:32;;;;;;;;;;;;;;;20.17;74.96;101067.44;7280260;19;152753;-61
2022/09/10 05:05:59;;;;;;;;;;;;;;;20.15;74.44;101069.75;7281002;19;152815;-61
2022/09/10 05:08:26;;;;;;;;;;;;;;;20.14;74.54;101062.47;7281012;19;153105;-60
2022/09/10 05:10:52;;;;;;;;;;;;;;;20.14;74.47;101073.69;7289783;19;153192;-60
2022/09/10 05:13:20;;;;;;;;;;;;;;;20.15;74.53;101074.50;7278620;19;153057;-61
2022/09/10 05:15:48;;;;;;;;;;;;;;;20.12;74.29;101075.97;7281597;19;152511;-60
2022/09/10 05:18:15;;;;;;;;;;;;;;;20.15;74.54;101068.91;7281721;19;153117;-60
2022/09/10 05:20:43;;;;;;;;;;;;;;;20.13;74.52;101071.16;7281403;19;151776;-60
2022/09/10 05:23:11;;;;;;;;;;;;;;;20.11;74.50;101074.28;7282278;19;154576;-60
2022/09/10 05:25:43;;;;;;;;;;;;;;;20.12;74.09;101069.53;7279607;19;153198;-60
2022/09/10 05:28:11;;;;;;;;;;;;;;;20.14;74.94;101073.69;7279462;19;153259;-61
2022/09/10 05:30:40;;;;;;;;;;;;;;;20.12;74.38;101075.13;7281948;19;152932;-60
2022/09/10 05:33:16;;;;;;;;;;;;;;;20.12;74.33;101080.75;7288824;19;153370;-60
2022/09/10 05:35:50;;;;;;;;;;;;;;;20.11;74.00;101079.91;7280962;19;153505;-60
2022/09/10 05:38:17;;;;;;;;;;;;;;;20.11;74.58;101079.91;7281062;19;154104;-61
2022/09/10 05:40:44;;;;;;;;;;;;;;;20.11;74.43;101079.06;7286861;19;152119;-61
2022/09/10 05:43:11;;;;;;;;;;;;;;;20.11;74.62;101090.28;7285620;19;151998;-61
2022/09/10 05:45:41;;;;;;;;;;;;;;;20.11;74.78;101093.94;7286587;19;152382;-60
2022/09/10 05:48:08;;;;;;;;;;;;;;;20.12;74.76;101097.56;7288819;19;152589;-61
2022/09/10 05:50:37;;;;;;;;;;;;;;;20.14;75.58;101098.09;7287793;19;153100;-61
2022/09/10 05:53:04;;;;;;;;;;;;;;;20.13;74.91;101097.25;7288074;19;154653;-61
2022/09/10 05:55:32;;;;;;;;;;;;;;;20.14;74.96;101109.31;7293148;19;152027;-62
2022/09/10 05:58:04;;;;;;;;;;;;;;;20.17;75.71;101108.72;7284804;19;152975;-61
2022/09/10 06:00:31;;;;;;;;;;;;;;;20.18;75.62;101110.38;7287623;19;152638;-61
2022/09/10 06:02:58;;;;;;;;;;;;;;;20.14;74.74;101106.50;7287045;19;153795;-61
2022/09/10 06:05:25;;;;;;;;;;;;;;;20.12;74.48;101120.00;7286863;19;153722;-61
2022/09/10 06:07:53;;;;;;;;;;;;;;;20.12;74.71;101118.03;7286144;19;152665;-61
2022/09/10 06:10:20;;;;;;;;;;;;;;;20.11;74.58;101133.19;7287982;19;153531;-61
2022/09/10 06:12:48;;;;;;;;;;;;;;;20.13;75.28;101127.28;7284251;19;154234;-61
2022/09/10 06:15:15;;;;;;;;;;;;;;;20.19;76.28;101128.88;7286643;19;153472;-61
2022/09/10 06:17:42;;;;;;;;;;;;;;;20.18;75.61;101133.66;7294145;19;153739;-61
2022/09/10 06:20:11;;;;;;;;;;;;;;;20.14;75.14;101138.19;7287076;19;151992;-61
2022/09/10 06:22:39;;;;;;;;;;;;;;;20.18;75.78;101144.88;7285287;19;152180;-61
2022/09/10 06:25:06;;;;;;;;;;;;;;;20.22;76.07;101157.16;7286276;19;153996;-61
2022/09/10 06:27:33;;;;;;;;;;;;;;;20.18;75.96;101152.44;7284367;19;151936;-61
2022/09/10 06:30:00;;;;;;;;;;;;;;;20.18;76.33;101156.09;7286973;19;151808;-61
2022/09/10 06:32:27;;;;;;;;;;;;;;;20.16;76.32;101164.00;7286050;19;153944;-60
2022/09/10 06:34:54;;;;;;;;;;;;;;;20.15;76.83;101162.31;7287372;19;152000;-60
2022/09/10 06:37:22;;;;;;;;;;;;;;;20.16;76.79;101166.81;7285860;19;154542;-60
2022/09/10 06:39:57;;;;;;;;;;;;;;;20.17;76.39;101170.44;7293238;19;152856;-60
2022/09/10 06:42:27;;;;;;;;;;;;;;;20.17;76.09;101178.84;7285047;19;152958;-60
2022/09/10 06:45:05;;;;;;;;;;;;;;;20.13;75.04;101174.97;7285764;19;153400;-59
2022/09/10 06:47:51;;;;;;;;;;;;;;;20.11;74.81;101178.09;7284357;19;153069;-60
2022/09/10 06:50:38;;;;;;;;;;;;;;;20.13;75.67;101172.16;7283386;19;152231;-60
2022/09/10 06:53:05;;;;;;;;;;;;;;;20.17;76.09;101179.66;7285739;19;153844;-60
2022/09/10 06:55:41;;;;;;;;;;;;;;;20.16;76.05;101183.63;7286331;19;152271;-60
2022/09/10 06:58:24;;;;;;;;;;;;;;;20.11;75.10;101185.66;7283799;19;152543;-60
2022/09/10 07:00:58;;;;;;;;;;;;;;;20.13;75.96;101188.97;7292744;19;153139;-60
2022/09/10 07:03:25;;;;;;;;;;;;;;;20.12;75.36;101190.97;7284056;19;153412;-60
2022/09/10 07:05:54;;;;;;;;;;;;;;;20.13;75.41;101194.59;7284498;19;153861;-59
2022/09/10 07:08:21;;;;;;;;;;;;;;;20.14;75.63;101196.28;7286329;19;152644;-59
2022/09/10 07:10:49;;;;;;;;;;;;;;;20.13;75.33;101194.59;7287468;19;152884;-59
2022/09/10 07:13:16;;;;;;;;;;;;;;;20.12;75.16;101192.94;7280316;19;153276;-59
2022/09/10 07:15:49;;;;;;;;;;;;;;;20.13;75.60;101200.19;7285612;19;152349;-60
2022/09/10 07:18:17;;;;;;;;;;;;;;;20.11;74.49;101202.50;7286760;19;153567;-60
2022/09/10 07:20:45;;;;;;;;;;;;;;;20.09;74.88;101197.16;7285104;19;154249;-60
2022/09/10 07:23:13;;;;;;;;;;;;;;;20.14;75.85;101207.50;7293158;19;152833;-60
2022/09/10 07:25:48;;;;;;;;;;;;;;;20.15;75.65;101220.41;7285838;19;153371;-61
2022/09/10 07:28:16;;;;;;;;;;;;;;;20.17;76.07;101215.34;7283379;19;152699;-60
2022/09/10 07:30:46;;;;;;;;;;;;;;;20.17;76.40;101218.94;7285367;19;153044;-60
2022/09/10 07:33:14;;;;;;;;;;;;;;;20.18;76.64;101228.19;7285104;19;153050;-61
2022/09/10 07:35:44;;;;;;;;;;;;;;;20.17;76.11;101223.75;7282583;19;152439;-61
2022/09/10 07:38:19;;;;;;;;;;;;;;;20.17;76.13;101232.97;7284230;19;152853;-60
2022/09/10 07:40:47;;;;;;;;;;;;;;;20.15;76.08;101231.63;7286008;19;153549;-60
2022/09/10 07:43:14;;;;;;;;;;;;;;;20.18;76.35;101228.19;7282836;19;152255;-60
2022/09/10 07:45:41;;;;;;;;;;;;;;;20.17;76.25;101232.16;7290879;19;153453;-60
2022/09/10 07:48:10;;;;;;;;;;;;;;;20.16;75.84;101233.28;7285335;19;152110;-60
2022/09/10 07:50:37;;;;;;;;;;;;;;;20.16;76.18;101227.69;7284089;19;154241;-60
2022/09/10 07:53:22;;;;;;;;;;;;;;;20.21;76.92;101233.22;7284089;19;154362;-61
2022/09/10 07:56:00;;;;;;;;;;;;;;;20.21;76.33;101227.63;7283956;19;152757;-62
2022/09/10 07:58:31;;;;;;;;;;;;;;;20.17;76.40;101235.78;7282332;19;154963;-61
2022/09/10 08:00:58;;;;;;;;;;;;;;;20.13;76.13;101229.09;7284450;19;154203;-61
2022/09/10 08:03:26;;;;;;;;;;;;;;;20.11;76.34;101231.38;7282617;19;153744;-61
2022/09/10 08:05:54;;;;;;;;;;;;;;;20.12;75.95;101237.84;7285906;19;153684;-61
2022/09/10 08:08:21;;;;;;;;;;;;;;;20.11;76.17;101241.75;7291590;19;154022;-61
2022/09/10 08:10:48;;;;;;;;;;;;;;;20.07;76.17;101240.69;7285579;19;152667;-61
2022/09/10 08:13:15;;;;;;;;;;;;;;;20.04;76.22;101242.09;7280764;19;153497;-61
2022/09/10 08:15:50;;;;;;;;;;;;;;;20.09;76.32;101246.81;7282266;19;154171;-61
2022/09/10 08:18:17;;;;;;;;;;;;;;;20.08;75.76;101253.59;7281541;19;153438;-61
2022/09/10 08:20:43;;;;;;;;;;;;;;;20.07;76.10;101257.53;7282025;19;153283;-61
2022/09/10 08:23:10;;;;;;;;;;;;;;;20.09;76.25;101260.84;7283715;19;152258;-61
2022/09/10 08:25:48;;;;;;;;;;;;;;;20.06;75.99;101256.69;7283301;19;152819;-61
2022/09/10 08:28:15;;;;;;;;;;;;;;;20.06;76.11;101269.88;7280168;19;152320;-61
2022/09/10 08:30:41;;;;;;;;;;;;;;;20.05;76.42;101280.25;7290484;19;152586;-61
2022/09/10 08:33:08;;;;;;;;;;;;;;;20.06;76.61;101281.94;7283417;19;153689;-62
2022/09/10 08:35:37;;;;;;;;;;;;;;;20.08;76.32;101276.84;7283354;19;151733;-61
2022/09/10 08:38:17;;;;;;;;;;;;;;;20.07;76.11;101278.00;7279405;19;153433;-62
2022/09/10 08:40:44;;;;;;;;;;;;;;;20.06;76.46;101283.91;7285176;19;153943;-62
2022/09/10 08:43:11;;;;;;;;;;;;;;;20.05;76.27;101271.00;7282068;19;152607;-62
2022/09/10 08:45:48;;;;;;;;;;;;;;;20.07;76.21;101279.97;7282332;19;152928;-62
2022/09/10 08:48:19;;;;;;;;;;;;;;;20.06;76.36;101278.28;7282142;19;154321;-62
2022/09/10 08:50:51;;;;;;;;;;;;;;;20.06;76.57;101275.47;7236291;19;154840;-61
2022/09/10 08:53:36;;;;;;;;;;;;;;;20.06;76.64;101281.09;7276532;19;154380;-63
2022/09/10 08:56:08;;;;;;;;;;;;;;;20.08;76.54;101270.41;7281713;19;152612;-61
2022/09/10 08:58:48;;;;;;;;;;;;;;;20.08;76.49;101276.84;7274261;19;153807;-62
2022/09/10 09:01:24;;;;;;;;;;;;;;;20.09;76.73;101274.88;7279437;19;153481;-62
2022/09/10 09:03:54;;;;;;;;;;;;;;;20.09;76.72;101284.13;7278107;19;152418;-61
2022/09/10 09:06:40;;;;;;;;;;;;;;;20.11;76.70;101278.22;7281136;19;152263;-61
2022/09/10 09:09:08;;;;;;;;;;;;;;;20.10;76.21;101276.56;7278681;19;153680;-61
2022/09/10 09:11:59;;;;;;;;;;;;;;;20.12;76.30;101285.53;7281121;19;153154;-61
2022/09/10 09:14:26;;;;;;;;;;;;;;;20.12;76.14;101283.56;7283997;19;155140;-61
2022/09/10 09:17:26;;;;;;;;;;;;;;;20.10;76.29;101288.63;7279736;19;153889;-62
2022/09/10 09:20:09;;;;;;;;;;;;;;;20.13;76.42;101293.63;7276950;19;153699;-61
2022/09/10 09:22:42;;;;;;;;;;;;;;;20.18;76.34;101299.19;7278959;19;152959;-61
2022/09/10 09:25:22;;;;;;;;;;;;;;;20.17;76.19;101303.09;7279324;19;152339;-62
2022/09/10 09:27:54;;;;;;;;;;;;;;;20.15;75.61;101310.16;7278469;19;153552;-63
2022/09/10 09:30:48;;;;;;;;;;;;;;;20.15;75.10;101318.59;7279080;19;154161;-63
2022/09/10 09:33:21;;;;;;;;;;;;;;;20.13;74.96;101312.41;7281313;19;152124;-63
2022/09/10 09:35:58;;;;;;;;;;;;;;;20.12;74.84;101307.97;7277784;19;153779;-62
2022/09/10 09:38:29;;;;;;;;;;;;;;;20.10;75.42;101307.41;7283238;19;154107;-59
2022/09/10 09:40:58;;;;;;;;;;;;;;;20.13;75.39;101318.88;7279478;19;152828;-62
2022/09/10 09:43:37;;;;;;;;;;;;;;;20.17;75.50;101322.75;7273543;19;153432;-60
2022/09/10 09:46:12;;;;;;;;;;;;;;;20.18;75.79;101329.19;7281546;19;152454;-60
2022/09/10 09:48:40;;;;;;;;;;;;;;;20.19;76.04;101333.69;7278733;19;154181;-61
2022/09/10 09:51:10;;;;;;;;;;;;;;;20.14;75.79;101333.72;7275310;19;154501;-61
2022/09/10 09:53:40;;;;;;;;;;;;;;;20.18;75.64;101337.63;7270063;19;152182;-62
2022/09/10 09:56:22;;;;;;;;;;;;;;;20.21;75.91;101340.69;7276341;19;153374;-61
2022/09/10 09:58:50;;;;;;;;;;;;;;;20.21;75.60;101340.69;7272061;19;153455;-62
2022/09/10 10:01:25;;;;;;;;;;;;;;;20.23;75.57;101340.38;7284722;19;152010;-61
2022/09/10 10:04:01;;;;;;;;;;;;;;;20.25;75.30;101338.97;7272301;19;152643;-61
2022/09/10 10:06:31;;;;;;;;;;;;;;;20.29;75.49;101344.81;7279426;19;152402;-61
2022/09/10 10:09:00;;;;;;;;;;;;;;;20.31;75.47;101340.59;7277398;19;152712;-61
2022/09/10 10:11:39;;;;;;;;;;;;;;;20.34;75.31;101344.78;7277885;19;154300;-61
2022/09/10 10:14:20;;;;;;;;;;;;;;;20.36;74.89;101345.31;7273099;19;152625;-61
2022/09/10 10:16:47;;;;;;;;;;;;;;;20.39;75.12;101342.75;7278636;19;153429;-61
2022/09/10 10:19:43;;;;;;;;;;;;;;;20.45;74.50;101342.69;7280178;19;153168;-61
2022/09/10 10:22:12;;;;;;;;;;;;;;;20.47;74.41;101334.81;7276145;19;152451;-61
2022/09/10 10:24:50;;;;;;;;;;;;;;;20.48;74.50;101337.34;7250074;19;153756;-61
2022/09/10 10:27:25;;;;;;;;;;;;;;;20.49;74.33;101344.59;7268527;19;154896;-61
2022/09/10 10:30:00;;;;;;;;;;;;;;;20.54;73.75;101330.50;7280832;19;153054;-61
2022/09/10 10:32:31;;;;;;;;;;;;;;;20.56;73.90;101335.81;7283321;19;153624;-62
2022/09/10 10:35:03;;;;;;;;;;;;;;;20.57;73.27;101340.31;7285232;19;152071;-61
2022/09/10 10:37:45;;;;;;;;;;;;;;;20.59;73.49;101343.63;7277708;19;155510;-61
2022/09/10 10:40:32;;;;;;;;;;;;;;;20.59;72.97;101336.06;7283820;19;154509;-61
2022/09/10 10:43:14;;;;;;;;;;;;;;;20.62;73.05;101334.63;7281768;19;152825;-61
2022/09/10 10:45:50;;;;;;;;;;;;;;;20.61;73.12;101347.84;7284627;19;152970;-61
2022/09/10 10:48:23;;;;;;;;;;;;;;;20.63;73.09;101339.09;7290475;19;154272;-61
2022/09/10 10:50:55;;;;;;;;;;;;;;;20.64;73.25;101344.41;7285307;19;153462;-61
2022/09/10 10:53:35;;;;;;;;;;;;;;;20.65;73.24;101337.66;7277122;19;153913;-60
2022/09/10 10:56:21;;;;;;;;;;;;;;;20.70;72.70;101342.38;7284224;19;151923;-60
2022/09/10 10:58:51;;;;;;;;;;;;;;;20.69;73.12;101344.34;7279899;19;153776;-61
2022/09/10 11:01:21;;;;;;;;;;;;;;;20.73;72.62;101348.22;7283471;19;152954;-61
2022/09/10 11:03:55;;;;;;;;;;;;;;;20.72;72.38;101346.56;7279192;19;154998;-61
2022/09/10 11:06:24;;;;;;;;;;;;;;;20.72;72.32;101345.72;7284710;19;155048;-62
2022/09/10 11:09:03;;;;;;;;;;;;;;;20.72;72.33;101354.13;7284943;19;153468;-62
2022/09/10 11:11:34;;;;;;;;;;;;;;;20.70;72.65;101351.66;7287295;19;153278;-62
2022/09/10 11:14:14;;;;;;;;;;;;;;;20.70;72.59;101360.06;7281063;19;153848;-62
2022/09/10 11:16:44;;;;;;;;;;;;;;;20.69;72.23;101355.59;7286753;19;152381;-62
2022/09/10 11:19:14;;;;;;;;;;;;;;;20.69;72.34;101355.59;7281174;19;153958;-62
2022/09/10 11:21:44;;;;;;;;;;;;;;;20.68;72.16;101348.28;7283756;19;153697;-62
2022/09/10 11:24:11;;;;;;;;;;;;;;;20.69;72.65;101349.97;7283157;19;152561;-61
2022/09/10 11:26:44;;;;;;;;;;;;;;;20.71;72.18;101350.53;7285063;19;153771;-61
2022/09/10 11:29:24;;;;;;;;;;;;;;;20.69;72.03;101344.34;7276263;19;153145;-61
2022/09/10 11:32:17;;;;;;;;;;;;;;;20.70;72.03;101357.28;7293012;19;152265;-61
2022/09/10 11:34:46;;;;;;;;;;;;;;;20.70;72.03;101348.84;7281700;19;154204;-61
2022/09/10 11:37:17;;;;;;;;;;;;;;;20.70;71.89;101354.47;7282736;19;152340;-63
2022/09/10 11:39:45;;;;;;;;;;;;;;;20.70;72.17;101348.84;7285311;19;152952;-61
2022/09/10 11:42:39;;;;;;;;;;;;;;;20.70;72.01;101353.63;7278614;19;154321;-61
2022/09/10 11:45:18;;;;;;;;;;;;;;;20.70;71.87;101367.66;7283943;19;152861;-61
2022/09/10 11:47:59;;;;;;;;;;;;;;;20.70;72.07;101353.63;7287032;19;152854;-61
2022/09/10 11:50:29;;;;;;;;;;;;;;;20.67;72.27;101349.44;7281771;19;153542;-61
2022/09/10 11:53:01;;;;;;;;;;;;;;;20.75;72.12;101362.00;7283372;19;152135;-62
2022/09/10 11:55:46;;;;;;;;;;;;;;;20.75;71.89;101362.00;7288685;19;155329;-61
2022/09/10 11:58:37;;;;;;;;;;;;;;;20.75;71.96;101357.22;7278723;19;152166;-61
2022/09/10 12:01:23;;;;;;;;;;;;;;;20.81;71.84;101358.78;7283129;19;154076;-61
2022/09/10 12:04:14;;;;;;;;;;;;;;;20.82;72.00;101365.25;7278211;19;154125;-62
2022/09/10 12:07:00;;;;;;;;;;;;;;;20.81;72.11;101358.78;7282548;19;152733;-61
2022/09/10 12:09:36;;;;;;;;;;;;;;;20.81;71.78;101363.56;7286196;19;153015;-62
2022/09/10 12:12:16;;;;;;;;;;;;;;;20.78;71.91;101362.22;7281661;19;154030;-62
2022/09/10 12:14:42;;;;;;;;;;;;;;;20.78;71.68;101364.19;7282696;19;152267;-62
2022/09/10 12:17:13;;;;;;;;;;;;;;;20.78;72.01;101365.03;7283396;19;153025;-63
2022/09/10 12:19:45;;;;;;;;;;;;;;;20.78;72.13;101370.63;7285669;19;154373;-62
2022/09/10 12:22:34;;;;;;;;;;;;;;;20.76;71.94;101364.47;7283681;19;152980;-63
2022/09/10 12:25:06;;;;;;;;;;;;;;;20.77;71.73;101368.97;7283068;19;153910;-62
2022/09/10 12:27:44;;;;;;;;;;;;;;;20.76;71.90;101370.09;7282741;19;152621;-62
2022/09/10 12:30:22;;;;;;;;;;;;;;;20.77;71.49;101380.19;7284612;19;152228;-62
2022/09/10 12:32:51;;;;;;;;;;;;;;;20.78;71.61;101375.41;7282078;19;153925;-62
2022/09/10 12:35:30;;;;;;;;;;;;;;;20.78;71.46;101383.84;7282835;19;151916;-61
2022/09/10 12:38:15;;;;;;;;;;;;;;;20.78;71.92;101381.88;7236444;19;154361;-61
2022/09/10 12:40:43;;;;;;;;;;;;;;;20.78;71.63;101381.03;7277678;19;154193;-61
2022/09/10 12:43:28;;;;;;;;;;;;;;;20.78;71.51;101375.41;7288047;19;153244;-62
2022/09/10 12:46:15;;;;;;;;;;;;;;;20.78;71.60;101373.44;7279519;19;154785;-62
2022/09/10 12:48:46;;;;;;;;;;;;;;;20.80;71.70;101373.97;7279756;19;152072;-62
2022/09/10 12:51:13;;;;;;;;;;;;;;;20.79;71.75;101369.50;7281924;19;153658;-62